sensor_id;sensor_type;location;lat;lon;timestamp;pressure;altitude;pressure_sealevel;temperature;humidity
39363;BME280;25088;43.238;23.110;2023-03-03T00:01:18;96743.13;;;3.81;100.00
39363;BME280;25088;43.238;23.110;2023-03-03T00:03:44;96728.63;;;3.69;100.00
39363;BME280;25088;43.238;23.110;2023-03-03T00:06:12;96724.44;;;3.73;100.00
39363;BME280;25088;43.238;23.110;2023-03-03T00:08:38;96726.72;;;3.82;100.00
39363;BME280;25088;43.238;23.110;2023-03-03T00:11:04;96731.72;;;3.85;100.00
39363;BME280;25088;43.238;23.110;2023-03-03T00:13:31;96733.59;;;3.85;100.00
39363;BME280;25088;43.238;23.110;2023-03-03T00:18:47;96726.53;;;3.84;100.00
39363;BME280;25088;43.238;23.110;2023-03-03T00:21:30;96723.19;;;3.82;100.00
39363;BME280;25088;43.238;23.110;2023-03-03T00:24:23;96720.72;;;3.80;100.00
39363;BME280;25088;43.238;23.110;2023-03-03T00:26:53;96723.81;;;3.77;100.00
39363;BME280;25088;43.238;23.110;2023-03-03T00:31:54;96717.38;;;3.72;100.00
39363;BME280;25088;43.238;23.110;2023-03-03T00:34:25;96716.34;;;3.66;100.00
39363;BME280;25088;43.238;23.110;2023-03-03T00:36:56;96696.00;;;3.50;100.00
39363;BME280;25088;43.238;23.110;2023-03-03T00:39:38;96716.34;;;3.66;100.00
39363;BME280;25088;43.238;23.110;2023-03-03T00:42:12;96713.03;;;3.64;100.00
39363;BME280;25088;43.238;23.110;2023-03-03T00:44:51;96709.50;;;3.63;100.00
39363;BME280;25088;43.238;23.110;2023-03-03T00:47:31;96705.97;;;3.70;100.00
39363;BME280;25088;43.238;23.110;2023-03-03T00:52:37;96679.59;;;3.58;100.00
39363;BME280;25088;43.238;23.110;2023-03-03T00:55:04;96687.50;;;3.53;100.00
39363;BME280;25088;43.238;23.110;2023-03-03T00:57:30;96673.16;;;3.46;100.00
39363;BME280;25088;43.238;23.110;2023-03-03T00:59:55;96685.81;;;3.52;100.00
39363;BME280;25088;43.238;23.110;2023-03-03T01:02:21;96677.72;;;3.52;100.00
39363;BME280;25088;43.238;23.110;2023-03-03T01:04:51;96685.00;;;3.58;100.00
39363;BME280;25088;43.238;23.110;2023-03-03T01:07:18;96684.38;;;3.56;100.00
39363;BME280;25088;43.238;23.110;2023-03-03T01:09:43;96667.75;;;3.40;100.00
39363;BME280;25088;43.238;23.110;2023-03-03T01:12:10;96682.50;;;3.50;100.00
39363;BME280;25088;43.238;23.110;2023-03-03T01:14:36;96679.59;;;3.45;100.00
39363;BME280;25088;43.238;23.110;2023-03-03T01:17:02;96669.19;;;3.42;100.00
39363;BME280;25088;43.238;23.110;2023-03-03T01:19:28;96676.88;;;3.45;100.00
39363;BME280;25088;43.238;23.110;2023-03-03T01:21:53;96687.69;;;3.39;100.00
39363;BME280;25088;43.238;23.110;2023-03-03T01:24:19;96681.22;;;3.33;100.00
39363;BME280;25088;43.238;23.110;2023-03-03T01:26:44;96678.97;;;3.36;100.00
39363;BME280;25088;43.238;23.110;2023-03-03T01:29:09;96677.50;;;3.34;100.00
39363;BME280;25088;43.238;23.110;2023-03-03T01:31:35;96666.28;;;3.37;100.00
39363;BME280;25088;43.238;23.110;2023-03-03T01:34:00;96665.66;;;3.42;100.00
39363;BME280;25088;43.238;23.110;2023-03-03T01:36:27;96664.63;;;3.36;100.00
39363;BME280;25088;43.238;23.110;2023-03-03T01:38:53;96678.53;;;3.33;100.00
39363;BME280;25088;43.238;23.110;2023-03-03T01:41:19;96671.06;;;3.35;100.00
39363;BME280;25088;43.238;23.110;2023-03-03T01:43:46;96632.25;;;3.16;100.00
39363;BME280;25088;43.238;23.110;2023-03-03T01:48:56;96677.09;;;3.37;100.00
39363;BME280;25088;43.238;23.110;2023-03-03T01:51:38;96667.16;;;3.44;100.00
39363;BME280;25088;43.238;23.110;2023-03-03T01:54:14;96671.69;;;3.50;100.00
39363;BME280;25088;43.238;23.110;2023-03-03T01:56:42;96665.88;;;3.47;100.00
39363;BME280;25088;43.238;23.110;2023-03-03T01:59:19;96664.22;;;3.46;100.00
39363;BME280;25088;43.238;23.110;2023-03-03T02:01:46;96654.47;;;3.51;100.00
39363;BME280;25088;43.238;23.110;2023-03-03T02:04:12;96655.72;;;3.49;100.00
39363;BME280;25088;43.238;23.110;2023-03-03T02:06:45;96665.06;;;3.40;100.00
39363;BME280;25088;43.238;23.110;2023-03-03T02:11:41;96658.00;;;3.32;100.00
39363;BME280;25088;43.238;23.110;2023-03-03T02:14:10;96662.16;;;3.41;100.00
39363;BME280;25088;43.238;23.110;2023-03-03T02:16:36;96648.03;;;3.46;100.00
39363;BME280;25088;43.238;23.110;2023-03-03T02:19:04;96644.28;;;3.47;100.00
39363;BME280;25088;43.238;23.110;2023-03-03T02:21:33;96652.19;;;3.48;100.00
39363;BME280;25088;43.238;23.110;2023-03-03T02:26:36;96650.31;;;3.42;100.00
39363;BME280;25088;43.238;23.110;2023-03-03T02:29:03;96649.69;;;3.40;100.00
39363;BME280;25088;43.238;23.110;2023-03-03T02:31:30;96641.19;;;3.36;100.00
39363;BME280;25088;43.238;23.110;2023-03-03T02:33:56;96626.44;;;3.32;100.00
39363;BME280;25088;43.238;23.110;2023-03-03T02:36:25;96648.84;;;3.46;100.00
39363;BME280;25088;43.238;23.110;2023-03-03T02:39:08;96637.84;;;3.41;100.00
39363;BME280;25088;43.238;23.110;2023-03-03T02:44:31;96647.19;;;3.25;100.00
39363;BME280;25088;43.238;23.110;2023-03-03T02:46:57;96653.03;;;3.29;100.00
39363;BME280;25088;43.238;23.110;2023-03-03T02:49:25;96637.66;;;3.16;100.00
39363;BME280;25088;43.238;23.110;2023-03-03T02:51:51;96642.63;;;3.26;100.00
39363;BME280;25088;43.238;23.110;2023-03-03T02:54:19;96629.34;;;3.31;100.00
39363;BME280;25088;43.238;23.110;2023-03-03T02:56:46;96616.06;;;3.23;100.00
39363;BME280;25088;43.238;23.110;2023-03-03T02:59:12;96636.00;;;3.35;100.00
39363;BME280;25088;43.238;23.110;2023-03-03T03:01:38;96644.31;;;3.33;100.00
39363;BME280;25088;43.238;23.110;2023-03-03T03:04:15;96642.84;;;3.31;100.00
39363;BME280;25088;43.238;23.110;2023-03-03T03:06:41;96649.28;;;3.30;100.00
39363;BME280;25088;43.238;23.110;2023-03-03T03:09:08;96642.00;;;3.37;100.00
39363;BME280;25088;43.238;23.110;2023-03-03T03:11:35;96637.25;;;3.39;100.00
39363;BME280;25088;43.238;23.110;2023-03-03T03:14:02;96644.72;;;3.44;100.00
39363;BME280;25088;43.238;23.110;2023-03-03T03:16:28;96628.94;;;3.27;100.00
39363;BME280;25088;43.238;23.110;2023-03-03T03:18:54;96642.22;;;3.29;100.00
39363;BME280;25088;43.238;23.110;2023-03-03T03:21:20;96645.94;;;3.28;100.00
39363;BME280;25088;43.238;23.110;2023-03-03T03:23:45;96617.50;;;3.12;100.00
39363;BME280;25088;43.238;23.110;2023-03-03T03:26:11;96622.94;;;3.19;100.00
39363;BME280;25088;43.238;23.110;2023-03-03T03:28:36;96635.38;;;3.26;100.00
39363;BME280;25088;43.238;23.110;2023-03-03T03:31:03;96633.31;;;3.35;100.00
39363;BME280;25088;43.238;23.110;2023-03-03T03:33:29;96619.81;;;3.28;100.00
39363;BME280;25088;43.238;23.110;2023-03-03T03:35:55;96616.50;;;3.20;100.00
39363;BME280;25088;43.238;23.110;2023-03-03T03:38:21;96611.09;;;3.20;100.00
39363;BME280;25088;43.238;23.110;2023-03-03T03:40:47;96619.59;;;3.30;100.00
39363;BME280;25088;43.238;23.110;2023-03-03T03:43:13;96589.94;;;3.03;100.00
39363;BME280;25088;43.238;23.110;2023-03-03T03:45:41;96600.28;;;3.13;100.00
39363;BME280;25088;43.238;23.110;2023-03-03T03:48:06;96610.66;;;3.23;100.00
39363;BME280;25088;43.238;23.110;2023-03-03T03:50:32;96603.81;;;3.20;100.00
39363;BME280;25088;43.238;23.110;2023-03-03T03:52:58;96583.47;;;3.11;100.00
39363;BME280;25088;43.238;23.110;2023-03-03T03:55:23;96601.94;;;3.27;100.00
39363;BME280;25088;43.238;23.110;2023-03-03T03:57:48;96575.19;;;3.13;100.00
39363;BME280;25088;43.238;23.110;2023-03-03T04:00:14;96604.03;;;3.32;100.00
39363;BME280;25088;43.238;23.110;2023-03-03T04:02:40;96583.50;;;3.24;100.00
39363;BME280;25088;43.238;23.110;2023-03-03T04:05:06;96530.16;;;2.93;100.00
39363;BME280;25088;43.238;23.110;2023-03-03T04:07:32;96608.19;;;3.34;100.00
39363;BME280;25088;43.238;23.110;2023-03-03T04:09:58;96591.56;;;3.31;100.00
39363;BME280;25088;43.238;23.110;2023-03-03T04:12:23;96593.25;;;3.19;100.00
39363;BME280;25088;43.238;23.110;2023-03-03T04:14:49;96596.97;;;3.24;100.00
39363;BME280;25088;43.238;23.110;2023-03-03T04:17:18;96594.28;;;3.31;100.00
39363;BME280;25088;43.238;23.110;2023-03-03T04:19:44;96600.06;;;3.41;100.00
39363;BME280;25088;43.238;23.110;2023-03-03T04:22:10;96592.81;;;3.42;100.00
39363;BME280;25088;43.238;23.110;2023-03-03T04:24:38;96598.63;;;3.45;100.00
39363;BME280;25088;43.238;23.110;2023-03-03T04:27:03;96582.03;;;3.35;100.00
39363;BME280;25088;43.238;23.110;2023-03-03T04:29:29;96590.94;;;3.49;100.00
39363;BME280;25088;43.238;23.110;2023-03-03T04:31:54;96593.44;;;3.50;100.00
39363;BME280;25088;43.238;23.110;2023-03-03T04:34:20;96589.50;;;3.40;100.00
39363;BME280;25088;43.238;23.110;2023-03-03T04:36:46;96591.56;;;3.44;100.00
39363;BME280;25088;43.238;23.110;2023-03-03T04:39:11;96585.34;;;3.37;100.00
39363;BME280;25088;43.238;23.110;2023-03-03T04:41:37;96582.84;;;3.35;100.00
39363;BME280;25088;43.238;23.110;2023-03-03T04:44:02;96585.34;;;3.37;100.00
39363;BME280;25088;43.238;23.110;2023-03-03T04:46:28;96581.81;;;3.36;100.00
39363;BME280;25088;43.238;23.110;2023-03-03T04:48:53;96509.00;;;2.97;100.00
39363;BME280;25088;43.238;23.110;2023-03-03T04:51:19;96583.47;;;3.51;100.00
39363;BME280;25088;43.238;23.110;2023-03-03T04:53:45;96582.22;;;3.47;100.00
39363;BME280;25088;43.238;23.110;2023-03-03T04:56:11;96584.94;;;3.40;100.00
39363;BME280;25088;43.238;23.110;2023-03-03T04:58:36;96588.22;;;3.42;100.00
39363;BME280;25088;43.238;23.110;2023-03-03T05:01:02;96588.84;;;3.37;100.00
39363;BME280;25088;43.238;23.110;2023-03-03T05:03:27;96580.75;;;3.37;100.00
39363;BME280;25088;43.238;23.110;2023-03-03T05:05:53;96569.59;;;3.34;100.00
39363;BME280;25088;43.238;23.110;2023-03-03T05:08:18;96562.97;;;3.23;100.00
39363;BME280;25088;43.238;23.110;2023-03-03T05:10:44;96583.88;;;3.41;100.00
39363;BME280;25088;43.238;23.110;2023-03-03T05:13:10;96581.59;;;3.45;100.00
39363;BME280;25088;43.238;23.110;2023-03-03T05:15:36;96571.22;;;3.42;100.00
39363;BME280;25088;43.238;23.110;2023-03-03T05:18:01;96575.13;;;3.52;100.00
39363;BME280;25088;43.238;23.110;2023-03-03T05:20:27;96559.38;;;3.43;100.00
39363;BME280;25088;43.238;23.110;2023-03-03T05:22:53;96512.53;;;3.24;100.00
39363;BME280;25088;43.238;23.110;2023-03-03T05:25:19;96567.06;;;3.59;100.00
39363;BME280;25088;43.238;23.110;2023-03-03T05:27:45;96559.16;;;3.57;100.00
39363;BME280;25088;43.238;23.110;2023-03-03T05:30:11;96562.03;;;3.62;100.00
39363;BME280;25088;43.238;23.110;2023-03-03T05:32:37;96577.66;;;3.54;100.00
39363;BME280;25088;43.238;23.110;2023-03-03T05:35:04;96576.19;;;3.51;100.00
39363;BME280;25088;43.238;23.110;2023-03-03T05:37:30;96573.94;;;3.48;100.00
39363;BME280;25088;43.238;23.110;2023-03-03T05:39:55;96570.56;;;3.53;100.00
39363;BME280;25088;43.238;23.110;2023-03-03T05:42:20;96562.28;;;3.54;100.00
39363;BME280;25088;43.238;23.110;2023-03-03T05:44:46;96565.81;;;3.55;100.00
39363;BME280;25088;43.238;23.110;2023-03-03T05:47:12;96557.94;;;3.47;100.00
39363;BME280;25088;43.238;23.110;2023-03-03T05:49:37;96575.78;;;3.54;100.00
39363;BME280;25088;43.238;23.110;2023-03-03T05:52:03;96573.28;;;3.59;100.00
39363;BME280;25088;43.238;23.110;2023-03-03T05:54:28;96570.34;;;3.68;100.00
39363;BME280;25088;43.238;23.110;2023-03-03T05:56:54;96567.22;;;3.71;100.00
39363;BME280;25088;43.238;23.110;2023-03-03T05:59:22;96572.00;;;3.75;100.00
39363;BME280;25088;43.238;23.110;2023-03-03T06:01:47;96570.28;;;3.87;100.00
39363;BME280;25088;43.238;23.110;2023-03-03T06:04:13;96583.16;;;3.92;100.00
39363;BME280;25088;43.238;23.110;2023-03-03T06:06:38;96565.66;;;4.01;100.00
39363;BME280;25088;43.238;23.110;2023-03-03T06:09:04;96574.00;;;4.00;100.00
39363;BME280;25088;43.238;23.110;2023-03-03T06:11:29;96567.97;;;4.04;100.00
39363;BME280;25088;43.238;23.110;2023-03-03T06:13:55;96572.50;;;4.10;100.00
39363;BME280;25088;43.238;23.110;2023-03-03T06:16:20;96574.16;;;4.18;100.00
39363;BME280;25088;43.238;23.110;2023-03-03T06:18:46;96565.25;;;4.49;100.00
39363;BME280;25088;43.238;23.110;2023-03-03T06:21:11;96566.56;;;4.72;100.00
39363;BME280;25088;43.238;23.110;2023-03-03T06:23:37;96557.16;;;4.81;100.00
39363;BME280;25088;43.238;23.110;2023-03-03T06:26:02;96559.50;;;5.02;100.00
39363;BME280;25088;43.238;23.110;2023-03-03T06:28:28;96567.72;;;5.14;100.00
39363;BME280;25088;43.238;23.110;2023-03-03T06:30:54;96566.34;;;5.05;100.00
39363;BME280;25088;43.238;23.110;2023-03-03T06:33:20;96554.47;;;5.06;100.00
39363;BME280;25088;43.238;23.110;2023-03-03T06:35:50;96569.03;;;5.05;100.00
39363;BME280;25088;43.238;23.110;2023-03-03T06:38:16;96573.97;;;5.14;100.00
39363;BME280;25088;43.238;23.110;2023-03-03T06:40:41;96576.94;;;5.06;100.00
39363;BME280;25088;43.238;23.110;2023-03-03T06:43:07;96569.88;;;5.05;100.00
39363;BME280;25088;43.238;23.110;2023-03-03T06:45:32;96567.97;;;5.12;100.00
39363;BME280;25088;43.238;23.110;2023-03-03T06:47:58;96578.81;;;5.06;100.00
39363;BME280;25088;43.238;23.110;2023-03-03T06:50:23;96578.44;;;5.02;100.00
39363;BME280;25088;43.238;23.110;2023-03-03T06:52:50;96559.75;;;4.94;100.00
39363;BME280;25088;43.238;23.110;2023-03-03T06:55:23;96577.94;;;5.12;100.00
39363;BME280;25088;43.238;23.110;2023-03-03T06:57:49;96584.63;;;5.09;100.00
39363;BME280;25088;43.238;23.110;2023-03-03T07:00:22;96579.63;;;5.06;100.00
39363;BME280;25088;43.238;23.110;2023-03-03T07:03:01;96577.41;;;4.97;100.00
39363;BME280;25088;43.238;23.110;2023-03-03T07:05:30;96584.28;;;4.99;100.00
39363;BME280;25088;43.238;23.110;2023-03-03T07:07:57;96569.41;;;4.83;100.00
39363;BME280;25088;43.238;23.110;2023-03-03T07:10:27;96589.13;;;4.90;100.00
39363;BME280;25088;43.238;23.110;2023-03-03T07:12:56;96582.41;;;5.00;100.00
39363;BME280;25088;43.238;23.110;2023-03-03T07:15:33;96591.22;;;4.88;100.00
39363;BME280;25088;43.238;23.110;2023-03-03T07:17:59;96583.06;;;4.95;100.00
39363;BME280;25088;43.238;23.110;2023-03-03T07:20:35;96576.81;;;4.95;100.00
39363;BME280;25088;43.238;23.110;2023-03-03T07:23:23;96578.25;;;4.97;100.00
39363;BME280;25088;43.238;23.110;2023-03-03T07:25:50;96558.28;;;4.98;100.00
39363;BME280;25088;43.238;23.110;2023-03-03T07:28:27;96575.22;;;5.12;100.00
39363;BME280;25088;43.238;23.110;2023-03-03T07:30:56;96578.22;;;5.29;100.00
39363;BME280;25088;43.238;23.110;2023-03-03T07:33:47;96578.16;;;5.35;100.00
39363;BME280;25088;43.238;23.110;2023-03-03T07:36:35;96574.31;;;5.25;100.00
39363;BME280;25088;43.238;23.110;2023-03-03T07:39:10;96577.44;;;5.22;100.00
39363;BME280;25088;43.238;23.110;2023-03-03T07:41:38;96559.72;;;5.26;100.00
39363;BME280;25088;43.238;23.110;2023-03-03T07:44:06;96567.25;;;5.42;100.00
39363;BME280;25088;43.238;23.110;2023-03-03T07:46:46;96572.97;;;5.59;100.00
39363;BME280;25088;43.238;23.110;2023-03-03T07:49:35;96566.91;;;5.57;100.00
39363;BME280;25088;43.238;23.110;2023-03-03T07:55:00;96565.44;;;5.61;100.00
39363;BME280;25088;43.238;23.110;2023-03-03T07:57:36;96574.44;;;5.55;100.00
39363;BME280;25088;43.238;23.110;2023-03-03T08:07:57;96563.25;;;5.69;97.67
39363;BME280;25088;43.238;23.110;2023-03-03T08:10:36;96558.28;;;5.66;100.00
39363;BME280;25088;43.238;23.110;2023-03-03T08:13:21;96563.19;;;5.76;98.60
39363;BME280;25088;43.238;23.110;2023-03-03T08:18:48;96546.25;;;5.81;97.10
39363;BME280;25088;43.238;23.110;2023-03-03T08:21:16;96557.63;;;5.89;98.05
39363;BME280;25088;43.238;23.110;2023-03-03T08:23:42;96563.16;;;6.01;97.21
39363;BME280;25088;43.238;23.110;2023-03-03T08:26:07;96548.56;;;6.02;95.39
39363;BME280;25088;43.238;23.110;2023-03-03T08:28:34;96531.22;;;5.85;96.35
39363;BME280;25088;43.238;23.110;2023-03-03T08:30:59;96561.25;;;6.02;94.11
39363;BME280;25088;43.238;23.110;2023-03-03T08:33:25;96560.44;;;6.01;93.70
39363;BME280;25088;43.238;23.110;2023-03-03T08:35:51;96560.09;;;5.98;95.45
39363;BME280;25088;43.238;23.110;2023-03-03T08:38:19;96556.56;;;5.97;95.43
39363;BME280;25088;43.238;23.110;2023-03-03T08:40:45;96555.78;;;6.08;94.72
39363;BME280;25088;43.238;23.110;2023-03-03T08:43:11;96547.66;;;6.08;95.08
39363;BME280;25088;43.238;23.110;2023-03-03T08:45:45;96556.66;;;6.20;94.42
39363;BME280;25088;43.238;23.110;2023-03-03T08:48:10;96560.59;;;6.06;93.75
39363;BME280;25088;43.238;23.110;2023-03-03T08:50:37;96560.59;;;6.06;95.07
39363;BME280;25088;43.238;23.110;2023-03-03T08:53:03;96557.50;;;6.21;93.32
39363;BME280;25088;43.238;23.110;2023-03-03T08:55:29;96564.31;;;6.12;92.86
39363;BME280;25088;43.238;23.110;2023-03-03T08:57:54;96563.84;;;6.15;95.37
39363;BME280;25088;43.238;23.110;2023-03-03T09:00:20;96556.16;;;6.12;93.18
39363;BME280;25088;43.238;23.110;2023-03-03T09:02:46;96558.78;;;6.00;94.22
39363;BME280;25088;43.238;23.110;2023-03-03T09:05:12;96553.22;;;6.13;90.44
39363;BME280;25088;43.238;23.110;2023-03-03T09:07:39;96555.41;;;6.23;90.38
39363;BME280;25088;43.238;23.110;2023-03-03T09:10:05;96556.22;;;6.24;91.58
39363;BME280;25088;43.238;23.110;2023-03-03T09:12:39;96556.47;;;6.22;93.25
39363;BME280;25088;43.238;23.110;2023-03-03T09:15:23;96554.56;;;6.22;94.60
39363;BME280;25088;43.238;23.110;2023-03-03T09:17:50;96548.72;;;6.07;93.00
39363;BME280;25088;43.238;23.110;2023-03-03T09:22:53;96543.44;;;5.94;93.98
39363;BME280;25088;43.238;23.110;2023-03-03T09:27:52;96552.59;;;6.11;94.22
39363;BME280;25088;43.238;23.110;2023-03-03T09:30:38;96547.94;;;6.18;94.41
39363;BME280;25088;43.238;23.110;2023-03-03T09:33:39;96547.34;;;6.16;94.89
39363;BME280;25088;43.238;23.110;2023-03-03T09:36:27;96527.56;;;5.98;95.95
39363;BME280;25088;43.238;23.110;2023-03-03T09:38:54;96544.94;;;6.08;98.58
39363;BME280;25088;43.238;23.110;2023-03-03T09:49:35;96548.13;;;6.35;92.61
39363;BME280;25088;43.238;23.110;2023-03-03T09:54:47;96544.72;;;6.58;88.71
39363;BME280;25088;43.238;23.110;2023-03-03T09:57:19;96549.75;;;6.55;89.75
39363;BME280;25088;43.238;23.110;2023-03-03T10:08:01;96540.50;;;6.62;88.34
39363;BME280;25088;43.238;23.110;2023-03-03T10:20:22;96522.31;;;7.05;89.04
39363;BME280;25088;43.238;23.110;2023-03-03T10:25:23;96516.44;;;7.31;86.04
39363;BME280;25088;43.238;23.110;2023-03-03T10:27:56;96515.84;;;7.29;85.52
39363;BME280;25088;43.238;23.110;2023-03-03T10:30:34;96520.19;;;7.30;86.55
39363;BME280;25088;43.238;23.110;2023-03-03T10:33:07;96512.41;;;7.34;87.81
39363;BME280;25088;43.238;23.110;2023-03-03T10:46:00;96494.69;;;7.55;86.04
39363;BME280;25088;43.238;23.110;2023-03-03T10:48:35;96495.41;;;7.62;85.80
39363;BME280;25088;43.238;23.110;2023-03-03T10:53:34;96483.16;;;8.11;86.70
39363;BME280;25088;43.238;23.110;2023-03-03T10:56:12;96483.69;;;8.37;82.14
39363;BME280;25088;43.238;23.110;2023-03-03T10:58:49;96474.28;;;8.44;81.85
39363;BME280;25088;43.238;23.110;2023-03-03T11:04:09;96469.16;;;8.93;75.18
39363;BME280;25088;43.238;23.110;2023-03-03T11:16:59;96459.38;;;8.47;77.33
39363;BME280;25088;43.238;23.110;2023-03-03T11:22:41;96455.97;;;7.99;81.39
39363;BME280;25088;43.238;23.110;2023-03-03T11:25:23;96459.66;;;7.93;83.98
39363;BME280;25088;43.238;23.110;2023-03-03T11:33:05;96451.50;;;7.41;94.22
39363;BME280;25088;43.238;23.110;2023-03-03T11:40:56;96454.31;;;6.88;100.00
39363;BME280;25088;43.238;23.110;2023-03-03T11:43:27;96448.88;;;6.88;100.00
39363;BME280;25088;43.238;23.110;2023-03-03T11:46:04;96441.94;;;6.92;100.00
39363;BME280;25088;43.238;23.110;2023-03-03T11:55:58;96443.78;;;6.80;100.00
39363;BME280;25088;43.238;23.110;2023-03-03T11:58:30;96435.19;;;6.83;100.00
39363;BME280;25088;43.238;23.110;2023-03-03T12:09:08;96432.13;;;6.91;100.00
39363;BME280;25088;43.238;23.110;2023-03-03T12:14:11;96437.78;;;6.89;100.00
39363;BME280;25088;43.238;23.110;2023-03-03T12:19:14;96444.06;;;7.02;100.00
39363;BME280;25088;43.238;23.110;2023-03-03T12:27:14;96434.97;;;6.84;98.67
39363;BME280;25088;43.238;23.110;2023-03-03T12:34:59;96447.47;;;6.85;100.00
39363;BME280;25088;43.238;23.110;2023-03-03T12:40:13;96440.72;;;6.76;100.00
39363;BME280;25088;43.238;23.110;2023-03-03T12:42:48;96443.22;;;6.78;100.00
39363;BME280;25088;43.238;23.110;2023-03-03T12:48:06;96449.34;;;6.85;100.00
39363;BME280;25088;43.238;23.110;2023-03-03T12:55:41;96447.78;;;6.65;100.00
39363;BME280;25088;43.238;23.110;2023-03-03T12:58:23;96445.69;;;6.67;100.00
39363;BME280;25088;43.238;23.110;2023-03-03T13:03:28;96445.28;;;6.52;100.00
39363;BME280;25088;43.238;23.110;2023-03-03T13:05:59;96445.63;;;6.44;100.00
39363;BME280;25088;43.238;23.110;2023-03-03T13:13:42;96447.34;;;6.27;100.00
39363;BME280;25088;43.238;23.110;2023-03-03T13:16:13;96446.16;;;6.22;100.00
39363;BME280;25088;43.238;23.110;2023-03-03T13:21:25;96446.91;;;6.11;100.00
39363;BME280;25088;43.238;23.110;2023-03-03T13:23:54;96442.09;;;6.13;100.00
39363;BME280;25088;43.238;23.110;2023-03-03T13:26:27;96438.88;;;6.05;100.00
39363;BME280;25088;43.238;23.110;2023-03-03T13:31:23;96442.03;;;6.02;100.00
39363;BME280;25088;43.238;23.110;2023-03-03T13:33:54;96442.34;;;6.12;100.00
39363;BME280;25088;43.238;23.110;2023-03-03T13:36:20;96437.75;;;6.12;100.00
39363;BME280;25088;43.238;23.110;2023-03-03T13:38:52;96448.72;;;6.17;100.00
39363;BME280;25088;43.238;23.110;2023-03-03T13:46:23;96452.97;;;6.25;100.00
39363;BME280;25088;43.238;23.110;2023-03-03T13:51:47;96438.28;;;6.33;100.00
39363;BME280;25088;43.238;23.110;2023-03-03T13:54:24;96431.34;;;6.37;100.00
39363;BME280;25088;43.238;23.110;2023-03-03T14:00:13;96431.50;;;6.54;100.00
39363;BME280;25088;43.238;23.110;2023-03-03T14:08:27;96428.81;;;6.89;100.00
39363;BME280;25088;43.238;23.110;2023-03-03T14:18:40;96415.03;;;7.02;100.00
39363;BME280;25088;43.238;23.110;2023-03-03T14:21:12;96417.97;;;7.00;100.00
39363;BME280;25088;43.238;23.110;2023-03-03T14:23:46;96433.69;;;6.87;100.00
39363;BME280;25088;43.238;23.110;2023-03-03T14:26:14;96437.22;;;6.87;100.00
39363;BME280;25088;43.238;23.110;2023-03-03T14:28:43;96430.47;;;6.90;100.00
39363;BME280;25088;43.238;23.110;2023-03-03T14:33:42;96422.69;;;6.82;100.00
39363;BME280;25088;43.238;23.110;2023-03-03T14:36:10;96421.97;;;6.74;100.00
39363;BME280;25088;43.238;23.110;2023-03-03T14:38:37;96421.03;;;6.69;100.00
39363;BME280;25088;43.238;23.110;2023-03-03T14:43:35;96420.66;;;6.65;100.00
39363;BME280;25088;43.238;23.110;2023-03-03T14:48:49;96423.72;;;6.81;100.00
39363;BME280;25088;43.238;23.110;2023-03-03T14:54:00;96420.44;;;6.79;100.00
39363;BME280;25088;43.238;23.110;2023-03-03T14:56:27;96407.81;;;6.96;100.00
39363;BME280;25088;43.238;23.110;2023-03-03T14:59:16;96406.53;;;7.10;100.00
39363;BME280;25088;43.238;23.110;2023-03-03T15:01:40;96405.47;;;7.23;100.00
39363;BME280;25088;43.238;23.110;2023-03-03T15:11:53;96406.13;;;7.54;100.00
39363;BME280;25088;43.238;23.110;2023-03-03T15:14:21;96406.25;;;7.47;100.00
39363;BME280;25088;43.238;23.110;2023-03-03T15:16:50;96399.88;;;7.53;100.00
39363;BME280;25088;43.238;23.110;2023-03-03T15:21:50;96396.22;;;7.47;100.00
39363;BME280;25088;43.238;23.110;2023-03-03T15:24:37;96395.50;;;7.40;100.00
39363;BME280;25088;43.238;23.110;2023-03-03T15:27:18;96401.75;;;7.41;100.00
39363;BME280;25088;43.238;23.110;2023-03-03T15:35:44;96393.59;;;7.53;100.00
39363;BME280;25088;43.238;23.110;2023-03-03T15:42:36;96396.34;;;7.29;100.00
39363;BME280;25088;43.238;23.110;2023-03-03T15:50:44;96403.34;;;7.02;100.00
39363;BME280;25088;43.238;23.110;2023-03-03T15:58:44;96413.03;;;6.97;100.00
39363;BME280;25088;43.238;23.110;2023-03-03T16:01:19;96419.50;;;6.85;100.00
39363;BME280;25088;43.238;23.110;2023-03-03T16:04:04;96424.09;;;6.72;100.00
39363;BME280;25088;43.238;23.110;2023-03-03T16:11:38;96417.72;;;6.67;100.00
39363;BME280;25088;43.238;23.110;2023-03-03T16:29:57;96445.56;;;6.62;100.00
39363;BME280;25088;43.238;23.110;2023-03-03T16:34:56;96446.56;;;6.50;100.00
39363;BME280;25088;43.238;23.110;2023-03-03T16:37:30;96448.59;;;6.54;100.00
39363;BME280;25088;43.238;23.110;2023-03-03T16:40:14;96447.63;;;6.48;100.00
39363;BME280;25088;43.238;23.110;2023-03-03T16:42:44;96455.66;;;6.55;100.00
39363;BME280;25088;43.238;23.110;2023-03-03T16:45:17;96454.59;;;6.56;100.00
39363;BME280;25088;43.238;23.110;2023-03-03T16:52:55;96459.88;;;6.51;100.00
39363;BME280;25088;43.238;23.110;2023-03-03T16:55:24;96467.19;;;6.51;100.00
39363;BME280;25088;43.238;23.110;2023-03-03T16:57:55;96460.59;;;6.46;100.00
39363;BME280;25088;43.238;23.110;2023-03-03T17:00:26;96467.19;;;6.51;100.00
39363;BME280;25088;43.238;23.110;2023-03-03T17:10:28;96469.00;;;6.57;100.00
39363;BME280;25088;43.238;23.110;2023-03-03T17:20:16;96470.84;;;6.44;100.00
39363;BME280;25088;43.238;23.110;2023-03-03T17:24:17;96471.63;;;6.63;100.00
39363;BME280;25088;43.238;23.110;2023-03-03T17:35:45;96470.28;;;6.54;100.00
39363;BME280;25088;43.238;23.110;2023-03-03T17:44:06;96493.38;;;6.45;100.00
39363;BME280;25088;43.238;23.110;2023-03-03T17:52:02;96502.31;;;6.45;100.00
39363;BME280;25088;43.238;23.110;2023-03-03T18:05:50;96507.66;;;6.52;100.00
39363;BME280;25088;43.238;23.110;2023-03-03T18:22:52;96519.34;;;6.53;100.00
39363;BME280;25088;43.238;23.110;2023-03-03T18:26:02;96511.06;;;6.47;100.00